Selfridge Angb Airport
KMTC : now visible

Airfield :











YOU CAN JOIN US ON...

 
LOGIN :

Register | Disclaimer

   EN    FR    IT 

 









Legend :    VFR   Marginal VFR   IFR   Intensive IFR   Very Intensive IFR
Visi :
Ceiling :
>= 8 km
>= 3000ft
5 to 8 km
1000 to 3000 ft
1500m to 5 km
500 to 1000 ft
800 to 1500m
200 to 500 ft
< 800m
< 200 ft
Symbols :   Thunderstorms  Fog  Heavy snow  Heavy precipitations  Wind > 20 kt






- Airport Elevation : 580 ft


KMTC - Selfridge Angb

CURRENT METAR :
  • 200556Z AUTO 15009KT 10SM CLR 18/18 A2955 RMK AO2 PRESFR SLP008 T01750175 10206 20153 55026

EXPIRED METARs :
  • 200456Z AUTO 15005KT 10SM CLR 16/16 A2961 RMK AO2 SLP030 T01620162 402470120
  • 200356Z AUTO 15007KT 10SM CLR 16/16 A2960 RMK AO2 SLP026 T01620162

TAF TAF KMTC
Valid from the 20 at 01:00 until the 21 at 07:00 UTC


200100Z 2001/2107 17012KT 9999 SCT055 SCT140 QNH2961INS
BECMG 2007/2008 17009KT 9000 -SHRA FEW008 BKN016 OVC023 520053 QNH2950INS
TEMPO 2008/2011 22020G25KT 8000 -TSRA BKN016CB
BECMG 2011/2012 18009KT 8000 BR BKN008 OVC015 510053 QNH2951INS
BECMG 2014/2015 22015G20KT 9000 BR BKN016 OVC024 510012 QNH2954INS
BECMG 2018/2019 21025G35KT 9999 NSW FEW040 530004 QNH2950INS
BECMG 2022/2023 21018KT 9999 FEW040 530054 QNH2952INS TX29/2021Z TN18/2008Z LAST NO AMDS AFT 2003 NEXT 2009
KZOB FIR / North America



MET'MAP, your aeronautical weather chart ! - Copyright ORBIFLY December 2007 - Disclaimer

ORBIFLY MET'MAP TEAM :

Programming & Development : Alexandra Zaïnal
Original concept : Baudouin d'Aumeries
Technical & hardware support : Manuel Goepfert
Assistance : Marc-Olivier Méhu

Contact : metmap@orbifly.com




SOURCES & CREDITS :

   NOAA       Earth
Advisory